Time;durP1;ratioP1;P1;durP2;ratioP2;P2;SDS_P1;SDS_P2;PMS_P1;PMS_P2;Temp;Humidity;BMP_temperature;BMP_pressure;BME280_temperature;BME280_humidity;BME280_pressure;Samples;Min_cycle;Max_cycle;Signal;HPM_P1;HPM_P2
2023/06/21 00:02:25;;;;;;;7.30;6.57;;;22.00;74.00;;;;;;5057081;28;20479;-70
2023/06/21 00:04:52;;;;;;;7.18;6.47;;;22.00;73.90;;;;;;5057144;28;20047;-70
2023/06/21 00:07:23;;;;;;;7.05;6.35;;;22.00;73.90;;;;;;5073623;28;20050;-70
2023/06/21 00:09:49;;;;;;;8.00;7.22;;;22.00;74.10;;;;;;5073430;28;20056;-70
2023/06/21 00:12:14;;;;;;;9.65;8.40;;;22.00;74.10;;;;;;5073382;28;20036;-70
2023/06/21 00:14:40;;;;;;;6.95;6.25;;;22.00;74.30;;;;;;5073309;28;20048;-70
2023/06/21 00:17:06;;;;;;;7.95;7.15;;;22.00;74.10;;;;;;5073310;28;20432;-70
2023/06/21 00:19:32;;;;;;;10.43;9.52;;;22.00;74.20;;;;;;5073383;28;20036;-70
2023/06/21 00:21:59;;;;;;;9.20;8.30;;;22.00;74.70;;;;;;5073255;28;20111;-70
2023/06/21 00:24:25;;;;;;;12.23;11.07;;;21.90;74.90;;;;;;5073575;28;20513;-70
2023/06/21 00:26:50;;;;;;;10.68;8.73;;;21.90;75.00;;;;;;5073522;28;20046;-70
2023/06/21 00:29:16;;;;;;;10.68;9.57;;;21.90;75.10;;;;;;5056502;28;20052;-70
2023/06/21 00:31:42;;;;;;;10.30;9.30;;;21.90;74.80;;;;;;5073296;28;20044;-70
2023/06/21 00:34:08;;;;;;;8.95;8.15;;;21.90;74.90;;;;;;5073107;28;20047;-70
2023/06/21 00:36:36;;;;;;;9.27;8.27;;;21.80;74.90;;;;;;5073127;28;20537;-70
2023/06/21 00:39:02;;;;;;;12.70;11.50;;;21.80;74.80;;;;;;5074555;28;20391;-70
2023/06/21 00:41:28;;;;;;;9.40;8.50;;;21.80;74.80;;;;;;5056325;28;20162;-70
2023/06/21 00:43:54;;;;;;;12.55;11.23;;;21.70;74.80;;;;;;5072472;28;20503;-70
2023/06/21 00:46:19;;;;;;;14.27;12.88;;;21.80;74.80;;;;;;5072130;28;20036;-70
2023/06/21 00:48:45;;;;;;;12.65;11.45;;;21.70;75.10;;;;;;5056370;28;20042;-70
2023/06/21 00:51:13;;;;;;;11.70;10.50;;;21.70;75.10;;;;;;5072737;28;20068;-70
2023/06/21 00:53:40;;;;;;;11.52;10.32;;;21.70;74.90;;;;;;5072903;28;20153;-70
2023/06/21 00:56:06;;;;;;;12.25;11.00;;;21.70;74.80;;;;;;5056013;28;20476;-70
2023/06/21 00:58:33;;;;;;;10.65;9.65;;;21.60;74.60;;;;;;5072254;28;20090;-70
2023/06/21 01:00:59;;;;;;;10.27;9.30;;;21.70;74.70;;;;;;5066816;28;20036;-70
2023/06/21 01:03:26;;;;;;;18.23;16.48;;;21.60;74.50;;;;;;5056033;28;20066;-70
2023/06/21 01:06:01;;;;;;;10.73;9.73;;;21.60;75.00;;;;;;5073838;28;20098;-70
2023/06/21 01:08:37;;;;;;;14.02;12.68;;;21.60;74.90;;;;;;5072590;28;20105;-70
2023/06/21 01:11:13;;;;;;;13.30;11.98;;;21.50;74.70;;;;;;5072558;28;20458;-70
2023/06/21 01:13:42;;;;;;;15.40;14.00;;;21.50;74.80;;;;;;5072015;28;20082;-70
2023/06/21 01:16:15;;;;;;;16.48;14.98;;;21.50;75.10;;;;;;5072428;28;20040;-70
2023/06/21 01:18:46;;;;;;;16.38;14.77;;;21.50;75.00;;;;;;5049082;28;20045;-70
2023/06/21 01:21:23;;;;;;;17.10;15.40;;;21.40;75.10;;;;;;5049099;28;20037;-70
2023/06/21 01:24:33;;;;;;;13.60;12.35;;;21.50;75.30;;;;;;5048928;28;20060;-70
2023/06/21 01:27:11;;;;;;;17.40;15.80;;;21.40;75.10;;;;;;4975445;28;20585;-70
2023/06/21 01:29:39;;;;;;;14.18;12.88;;;21.40;75.10;;;;;;5020556;28;20049;-70
2023/06/21 01:32:10;;;;;;;14.05;12.70;;;21.30;75.60;;;;;;5033173;28;20030;-70
2023/06/21 01:34:36;;;;;;;11.68;10.57;;;21.30;75.10;;;;;;5032240;28;20045;-70
2023/06/21 01:37:04;;;;;;;19.20;17.40;;;21.30;74.90;;;;;;5048516;28;20408;-70
2023/06/21 01:39:32;;;;;;;19.73;18.02;;;21.30;75.20;;;;;;5048345;28;20042;-70
2023/06/21 01:41:58;;;;;;;20.27;18.27;;;21.30;75.50;;;;;;5031840;28;20102;-70
2023/06/21 01:44:25;;;;;;;19.92;18.02;;;21.20;75.60;;;;;;5031488;28;20504;-70
2023/06/21 01:46:52;;;;;;;18.05;16.33;;;21.20;75.70;;;;;;5048529;28;20052;-70
2023/06/21 01:49:19;;;;;;;17.65;15.88;;;21.20;75.80;;;;;;5015386;28;20186;-70
2023/06/21 01:51:45;;;;;;;19.70;17.70;;;21.10;75.70;;;;;;5015609;28;20041;-70
2023/06/21 01:54:13;;;;;;;22.30;20.20;;;21.10;75.70;;;;;;5014593;28;20507;-70
2023/06/21 01:56:43;;;;;;;19.73;17.92;;;21.10;76.10;;;;;;5031282;28;20054;-70
2023/06/21 01:59:09;;;;;;;20.70;18.70;;;21.00;76.30;;;;;;5031184;28;20267;-70
2023/06/21 02:01:39;;;;;;;22.20;20.10;;;21.00;76.40;;;;;;5031888;28;20041;-70
2023/06/21 02:04:07;;;;;;;19.88;18.05;;;21.00;76.50;;;;;;5048584;28;20047;-70
2023/06/21 02:06:35;;;;;;;21.98;19.88;;;21.00;76.70;;;;;;5031351;28;20092;-70
2023/06/21 02:09:05;;;;;;;15.75;14.15;;;20.90;76.80;;;;;;5048160;28;20047;-70
2023/06/21 02:11:31;;;;;;;24.40;22.10;;;20.90;76.50;;;;;;5048023;28;20484;-70
2023/06/21 02:13:58;;;;;;;27.88;25.17;;;20.90;76.70;;;;;;5047453;28;20034;-70
2023/06/21 02:16:31;;;;;;;26.95;24.27;;;20.90;77.00;;;;;;5033457;28;20042;-70
2023/06/21 02:18:57;;;;;;;26.73;24.08;;;20.80;77.20;;;;;;5071526;28;20385;-70
2023/06/21 02:21:23;;;;;;;28.02;25.42;;;20.80;77.20;;;;;;5071407;28;20118;-70
2023/06/21 02:23:49;;;;;;;27.02;24.33;;;20.80;77.40;;;;;;5071513;28;20048;-70
2023/06/21 02:26:15;;;;;;;27.60;24.90;;;20.80;77.60;;;;;;5071148;28;20123;-70
2023/06/21 02:28:41;;;;;;;28.75;25.85;;;20.80;77.40;;;;;;5071070;28;20044;-70
2023/06/21 02:31:07;;;;;;;34.08;30.88;;;20.70;77.40;;;;;;5071192;28;20055;-70
2023/06/21 02:33:33;;;;;;;21.58;19.48;;;20.70;77.60;;;;;;5072506;28;20195;-70
2023/06/21 02:35:58;;;;;;;32.38;29.23;;;20.70;77.50;;;;;;5071092;28;20123;-70
2023/06/21 02:38:27;;;;;;;29.02;26.23;;;20.70;77.70;;;;;;5071045;28;20036;-70
2023/06/21 02:40:53;;;;;;;33.50;30.20;;;20.60;77.70;;;;;;5071254;28;20094;-70
2023/06/21 02:43:18;;;;;;;30.10;27.15;;;20.60;77.90;;;;;;5070510;28;20490;-70
2023/06/21 02:45:45;;;;;;;29.88;26.88;;;20.60;78.10;;;;;;5071121;28;20036;-70
2023/06/21 02:48:11;;;;;;;30.02;27.00;;;20.60;78.00;;;;;;5071205;28;20041;-70
2023/06/21 02:50:37;;;;;;;26.17;23.58;;;20.60;78.00;;;;;;5071170;28;20086;-70
2023/06/21 02:53:03;;;;;;;34.83;31.13;;;20.60;77.80;;;;;;5037555;28;20102;-70
2023/06/21 02:55:29;;;;;;;33.60;30.50;;;20.60;78.10;;;;;;5070860;28;20123;-70
2023/06/21 02:57:55;;;;;;;39.03;35.05;;;20.60;78.30;;;;;;5070795;28;20124;-70
2023/06/21 03:00:28;;;;;;;35.40;31.92;;;20.80;78.70;;;;;;5054288;28;20094;-70
2023/06/21 03:02:59;;;;;;;33.83;30.50;;;20.60;78.80;;;;;;5070988;28;20109;-70
2023/06/21 03:05:29;;;;;;;34.45;31.10;;;20.60;78.90;;;;;;5071765;28;20041;-70
2023/06/21 03:07:56;;;;;;;29.13;26.23;;;20.60;78.90;;;;;;5074504;28;20047;-70
2023/06/21 03:10:21;;;;;;;33.90;30.30;;;20.60;78.90;;;;;;5074609;28;20040;-70
2023/06/21 03:12:47;;;;;;;32.53;29.33;;;20.60;78.80;;;;;;5074759;28;20085;-70
2023/06/21 03:15:13;;;;;;;27.63;24.92;;;20.60;78.90;;;;;;5057992;28;20391;-70
2023/06/21 03:17:40;;;;;;;29.65;26.75;;;20.60;78.90;;;;;;5074565;28;20052;-70
2023/06/21 03:20:12;;;;;;;31.13;28.13;;;20.60;78.70;;;;;;5074473;28;20490;-70
2023/06/21 03:22:43;;;;;;;33.08;29.85;;;20.60;78.80;;;;;;5074508;28;20157;-70
2023/06/21 03:25:10;;;;;;;33.40;30.10;;;20.60;78.90;;;;;;5070146;28;20127;-70
2023/06/21 03:27:37;;;;;;;36.05;32.55;;;20.60;79.00;;;;;;5074372;28;20049;-70
2023/06/21 03:30:13;;;;;;;38.65;35.00;;;20.60;79.10;;;;;;5074181;28;20040;-70
2023/06/21 03:32:46;;;;;;;28.35;25.65;;;20.60;79.30;;;;;;5074183;28;20052;-70
2023/06/21 03:35:16;;;;;;;32.63;29.40;;;20.50;79.00;;;;;;5074420;28;20037;-69
2023/06/21 03:37:42;;;;;;;32.63;29.48;;;20.60;78.80;;;;;;5073878;28;21004;-69
2023/06/21 03:40:13;;;;;;;34.45;31.15;;;20.60;78.90;;;;;;5074284;28;20040;-69
2023/06/21 03:42:39;;;;;;;36.35;32.78;;;20.60;79.00;;;;;;5074157;28;20253;-69
2023/06/21 03:45:06;;;;;;;29.77;26.98;;;20.60;79.10;;;;;;5074225;28;20036;-69
2023/06/21 03:47:31;;;;;;;32.28;29.27;;;20.50;79.00;;;;;;5074040;28;20165;-69
2023/06/21 03:49:57;;;;;;;28.25;25.38;;;20.60;78.90;;;;;;5073926;28;20058;-69
2023/06/21 03:52:26;;;;;;;37.75;34.13;;;20.50;78.60;;;;;;5073850;28;20045;-69
2023/06/21 03:54:52;;;;;;;33.58;30.33;;;20.60;78.80;;;;;;5073833;28;20105;-69
2023/06/21 03:57:18;;;;;;;32.30;29.25;;;20.50;78.80;;;;;;5073919;28;20036;-69
2023/06/21 03:59:44;;;;;;;30.92;28.02;;;20.50;78.80;;;;;;5073858;28;20070;-69
2023/06/21 04:02:09;;;;;;;26.20;23.70;;;20.50;78.70;;;;;;5057198;28;20037;-69
2023/06/21 04:04:35;;;;;;;30.70;27.70;;;20.50;78.40;;;;;;5057113;28;20041;-69
2023/06/21 04:07:01;;;;;;;35.53;31.95;;;20.50;78.30;;;;;;5073362;28;20495;-69
2023/06/21 04:09:26;;;;;;;40.08;36.20;;;20.50;78.20;;;;;;5073750;28;20128;-69
2023/06/21 04:11:52;;;;;;;39.83;35.85;;;20.50;78.40;;;;;;5073624;28;20051;-69
2023/06/21 04:14:18;;;;;;;30.70;27.70;;;20.60;78.40;;;;;;5073877;28;20130;-69
2023/06/21 04:16:44;;;;;;;36.50;32.70;;;20.60;78.30;;;;;;5072467;28;20125;-69
2023/06/21 04:19:10;;;;;;;31.83;28.73;;;20.60;78.30;;;;;;5040014;28;20033;-69
2023/06/21 04:21:36;;;;;;;35.15;31.73;;;20.60;78.20;;;;;;5056501;28;20495;-69
2023/06/21 04:24:01;;;;;;;40.97;36.97;;;20.60;78.10;;;;;;5073195;28;20435;-69
2023/06/21 04:26:28;;;;;;;40.92;36.83;;;20.60;78.20;;;;;;5073450;28;20430;-69
2023/06/21 04:28:54;;;;;;;34.45;31.15;;;20.60;78.50;;;;;;5070239;28;20125;-69
2023/06/21 04:31:20;;;;;;;30.92;27.85;;;20.60;78.50;;;;;;5073388;28;20071;-69
2023/06/21 04:33:45;;;;;;;34.42;31.02;;;20.60;78.30;;;;;;5073678;28;20040;-69
2023/06/21 04:36:17;;;;;;;33.58;30.30;;;20.60;78.30;;;;;;5073375;28;20048;-68
2023/06/21 04:38:43;;;;;;;38.08;34.25;;;20.60;78.20;;;;;;5072849;28;20040;-68
2023/06/21 04:41:09;;;;;;;35.78;32.42;;;20.60;78.30;;;;;;5072946;28;20040;-68
2023/06/21 04:43:35;;;;;;;34.13;30.67;;;20.70;78.30;;;;;;5073461;28;20210;-69
2023/06/21 04:46:01;;;;;;;35.42;32.03;;;20.60;78.20;;;;;;5074062;28;20033;-68
2023/06/21 04:48:27;;;;;;;32.97;29.75;;;20.70;78.30;;;;;;5073322;28;20036;-69
2023/06/21 04:50:52;;;;;;;33.50;30.23;;;20.70;78.30;;;;;;5073071;28;20522;-69
2023/06/21 04:53:19;;;;;;;32.17;29.05;;;20.70;78.30;;;;;;5072523;28;20055;-69
2023/06/21 04:55:44;;;;;;;35.83;32.40;;;20.70;78.10;;;;;;5072794;28;20051;-69
2023/06/21 04:58:12;;;;;;;30.30;27.40;;;20.80;78.40;;;;;;5072434;28;20040;-69
2023/06/21 05:00:38;;;;;;;28.95;26.15;;;20.80;78.20;;;;;;5072403;28;20632;-69
2023/06/21 05:03:04;;;;;;;30.15;27.05;;;20.80;78.00;;;;;;5072406;28;20052;-69
2023/06/21 05:05:29;;;;;;;31.65;28.45;;;20.80;78.00;;;;;;5073282;28;20063;-69
2023/06/21 05:07:55;;;;;;;33.65;30.23;;;20.90;78.30;;;;;;5072736;28;20413;-69
2023/06/21 05:10:21;;;;;;;29.58;26.48;;;20.90;78.50;;;;;;5072634;28;20083;-69
2023/06/21 05:12:46;;;;;;;28.45;25.60;;;20.90;78.60;;;;;;5072199;28;20043;-69
2023/06/21 05:15:12;;;;;;;26.33;23.67;;;21.00;78.90;;;;;;5055848;28;20044;-69
2023/06/21 05:17:38;;;;;;;25.23;22.63;;;21.10;78.90;;;;;;5071689;28;20056;-69
2023/06/21 05:20:04;;;;;;;28.75;25.90;;;21.20;79.00;;;;;;5072480;28;20137;-69
2023/06/21 05:22:30;;;;;;;22.48;20.27;;;21.40;79.30;;;;;;5088283;28;20110;-69
2023/06/21 05:24:57;;;;;;;20.90;18.83;;;21.70;78.50;;;;;;5073134;28;20032;-69
2023/06/21 05:27:22;;;;;;;19.73;17.73;;;21.90;77.30;;;;;;5073126;28;20071;-70
2023/06/21 05:29:48;;;;;;;20.90;18.77;;;22.20;76.20;;;;;;5070664;28;20071;-70
2023/06/21 05:32:14;;;;;;;17.08;15.38;;;22.50;76.10;;;;;;5055569;28;20040;-70
2023/06/21 05:34:39;;;;;;;16.85;15.15;;;22.70;74.70;;;;;;5055441;28;20450;-70
2023/06/21 05:37:05;;;;;;;19.05;14.60;;;23.00;73.50;;;;;;5071957;28;20044;-70
2023/06/21 05:39:31;;;;;;;14.40;12.25;;;23.30;72.60;;;;;;5072078;28;20509;-70
2023/06/21 05:41:56;;;;;;;12.55;11.20;;;23.60;71.40;;;;;;5071607;28;20041;-70
2023/06/21 05:44:22;;;;;;;11.60;10.18;;;23.80;69.80;;;;;;5072930;28;20040;-70
2023/06/21 05:46:48;;;;;;;13.38;10.30;;;24.10;68.40;;;;;;5071803;28;20040;-70
2023/06/21 05:49:13;;;;;;;10.93;9.63;;;24.40;67.70;;;;;;5071483;28;20044;-70
2023/06/21 05:51:39;;;;;;;11.38;8.63;;;24.60;66.70;;;;;;5071420;28;20136;-70
2023/06/21 05:54:05;;;;;;;12.02;9.40;;;24.80;65.10;;;;;;5071454;28;20497;-70
2023/06/21 05:56:31;;;;;;;10.18;8.80;;;25.00;64.90;;;;;;5055431;28;20040;-69
2023/06/21 05:58:57;;;;;;;9.90;8.45;;;25.30;64.20;;;;;;5070989;28;20044;-70
2023/06/21 06:01:23;;;;;;;9.25;8.25;;;25.50;63.70;;;;;;5071565;28;20037;-69
2023/06/21 06:03:48;;;;;;;10.63;8.10;;;25.70;63.40;;;;;;5054487;28;20039;-69
2023/06/21 06:06:15;;;;;;;8.93;7.25;;;26.00;61.60;;;;;;5054069;28;20040;-68
2023/06/21 06:08:41;;;;;;;10.73;7.55;;;26.20;61.20;;;;;;5070936;28;20040;-69
2023/06/21 06:11:07;;;;;;;8.90;6.63;;;26.40;60.00;;;;;;5054740;28;20037;-69
2023/06/21 06:13:32;;;;;;;9.80;7.72;;;26.60;59.30;;;;;;5071294;28;20044;-69
2023/06/21 06:15:58;;;;;;;7.72;6.55;;;26.70;58.50;;;;;;5070887;28;20395;-69
2023/06/21 06:18:24;;;;;;;7.63;6.78;;;26.90;58.10;;;;;;5054455;28;20137;-69
2023/06/21 06:20:49;;;;;;;6.15;5.45;;;27.10;58.10;;;;;;5071311;28;20043;-69
2023/06/21 06:23:15;;;;;;;7.22;6.20;;;27.30;57.30;;;;;;5071510;28;20036;-69
2023/06/21 06:25:41;;;;;;;7.90;6.05;;;27.40;57.10;;;;;;5071016;28;20115;-69
2023/06/21 06:28:07;;;;;;;11.70;7.70;;;27.60;56.60;;;;;;5070958;28;20074;-70
2023/06/21 06:30:33;;;;;;;10.05;7.22;;;27.80;56.10;;;;;;5038286;28;20046;-70
2023/06/21 06:32:58;;;;;;;7.70;5.82;;;27.90;55.40;;;;;;5072619;28;20390;-69
2023/06/21 06:35:24;;;;;;;7.40;5.60;;;28.10;55.60;;;;;;5054744;28;20048;-69
2023/06/21 06:37:50;;;;;;;6.72;5.20;;;28.20;55.00;;;;;;5071059;28;20044;-69
2023/06/21 06:40:16;;;;;;;6.78;5.47;;;28.40;54.50;;;;;;5070951;28;20041;-69
2023/06/21 06:42:41;;;;;;;6.30;4.63;;;28.60;53.70;;;;;;5071034;28;20040;-70
2023/06/21 06:45:08;;;;;;;6.43;4.85;;;28.70;53.00;;;;;;5070909;28;20044;-70
2023/06/21 06:47:33;;;;;;;6.20;4.47;;;28.80;53.40;;;;;;5071180;28;20089;-70
2023/06/21 06:50:02;;;;;;;7.25;4.65;;;29.00;52.40;;;;;;5070965;28;20051;-70
2023/06/21 06:52:30;;;;;;;6.25;4.20;;;29.10;52.00;;;;;;5055004;28;20377;-70
2023/06/21 06:54:56;;;;;;;6.28;4.70;;;29.20;51.50;;;;;;5054213;28;20510;-70
2023/06/21 06:57:22;;;;;;;7.13;4.65;;;29.30;51.40;;;;;;5070976;28;20044;-70
2023/06/21 06:59:49;;;;;;;6.70;4.95;;;29.40;50.90;;;;;;5054375;28;20045;-67
2023/06/21 07:02:15;;;;;;;5.93;4.10;;;29.50;50.50;;;;;;5070738;28;20119;-67
2023/06/21 07:04:41;;;;;;;4.38;3.40;;;29.50;50.70;;;;;;5070953;28;20113;-67
2023/06/21 07:07:06;;;;;;;7.68;4.35;;;29.70;50.70;;;;;;5070857;28;20113;-67
2023/06/21 07:09:33;;;;;;;7.28;3.60;;;29.80;49.80;;;;;;5070970;28;20047;-67
2023/06/21 07:12:01;;;;;;;4.65;3.97;;;29.80;49.60;;;;;;5070648;28;20087;-67
2023/06/21 07:14:27;;;;;;;5.47;4.15;;;29.90;49.50;;;;;;5070881;28;20044;-67
2023/06/21 07:16:53;;;;;;;5.93;4.05;;;29.90;49.70;;;;;;5070607;28;20488;-67
2023/06/21 07:19:19;;;;;;;4.68;3.38;;;30.00;49.00;;;;;;5070629;28;20117;-67
2023/06/21 07:21:44;;;;;;;5.88;3.60;;;30.00;48.50;;;;;;5070935;28;20035;-67
2023/06/21 07:24:11;;;;;;;7.95;4.15;;;30.10;48.30;;;;;;5070615;28;20368;-67
2023/06/21 07:26:38;;;;;;;4.53;3.05;;;30.20;47.90;;;;;;5070837;28;20484;-67
2023/06/21 07:29:04;;;;;;;5.30;3.97;;;30.20;47.50;;;;;;5070676;28;20479;-67
2023/06/21 07:31:32;;;;;;;5.63;3.83;;;30.30;46.80;;;;;;5054071;28;20048;-67
2023/06/21 07:33:58;;;;;;;3.97;3.00;;;30.30;47.10;;;;;;5070704;28;20161;-67
2023/06/21 07:36:25;;;;;;;6.75;4.22;;;30.40;47.10;;;;;;5070933;28;20145;-66
2023/06/21 07:38:50;;;;;;;4.25;3.13;;;30.40;46.70;;;;;;5053850;28;20047;-66
2023/06/21 07:41:16;;;;;;;4.40;3.42;;;30.50;46.50;;;;;;5071792;28;20040;-67
2023/06/21 07:43:42;;;;;;;4.90;3.15;;;30.60;46.30;;;;;;5070624;28;20036;-67
2023/06/21 07:46:08;;;;;;;7.22;4.38;;;30.70;45.80;;;;;;5070312;28;20044;-70
2023/06/21 07:48:36;;;;;;;4.10;3.17;;;30.60;44.90;;;;;;5070354;28;20051;-67
2023/06/21 07:51:02;;;;;;;5.35;3.38;;;30.60;45.20;;;;;;5070525;28;20036;-66
2023/06/21 07:53:28;;;;;;;6.80;3.55;;;30.50;45.60;;;;;;5073024;28;20052;-67
2023/06/21 07:55:53;;;;;;;5.68;3.00;;;30.60;45.60;;;;;;5074227;28;20102;-67
2023/06/21 07:58:19;;;;;;;3.70;3.03;;;30.60;45.50;;;;;;5057111;28;20395;-67
2023/06/21 08:00:45;;;;;;;4.18;3.17;;;30.70;45.90;;;;;;5073980;28;20036;-67
2023/06/21 08:03:10;;;;;;;5.20;3.50;;;30.70;45.50;;;;;;5074072;28;20039;-67
2023/06/21 08:05:36;;;;;;;4.90;2.90;;;30.80;45.00;;;;;;5074127;28;20044;-67
2023/06/21 08:08:02;;;;;;;4.05;3.55;;;30.70;44.70;;;;;;5074912;28;20444;-67
2023/06/21 08:10:30;;;;;;;3.53;2.78;;;30.70;44.60;;;;;;5057040;28;20077;-67
2023/06/21 08:12:56;;;;;;;4.78;3.45;;;30.60;44.70;;;;;;5073600;28;20506;-67
2023/06/21 08:15:22;;;;;;;4.35;2.80;;;30.60;45.30;;;;;;5073329;28;20040;-66
2023/06/21 08:17:49;;;;;;;4.60;3.63;;;30.50;45.00;;;;;;5073167;28;20052;-67
2023/06/21 08:20:14;;;;;;;4.85;3.38;;;30.40;44.70;;;;;;5074683;28;20049;-66
2023/06/21 08:22:40;;;;;;;4.38;3.20;;;30.30;45.50;;;;;;5073778;28;20032;-66
2023/06/21 08:25:06;;;;;;;4.75;3.65;;;30.30;45.70;;;;;;5073501;28;20553;-66
2023/06/21 08:27:32;;;;;;;7.80;3.72;;;30.20;45.30;;;;;;5073283;28;20044;-67
2023/06/21 08:29:57;;;;;;;4.72;3.10;;;30.20;45.30;;;;;;5073452;28;20044;-67
2023/06/21 08:32:24;;;;;;;4.90;3.53;;;30.20;45.30;;;;;;5056490;28;20158;-66
2023/06/21 08:34:52;;;;;;;5.43;3.45;;;30.30;45.80;;;;;;5073525;28;20433;-67
2023/06/21 08:37:22;;;;;;;3.67;3.25;;;30.40;46.00;;;;;;5073093;28;20140;-67
2023/06/21 08:39:49;;;;;;;3.85;2.83;;;30.40;45.70;;;;;;5065481;28;20064;-66
2023/06/21 08:42:15;;;;;;;4.70;3.40;;;30.50;45.10;;;;;;5074409;28;20476;-66
2023/06/21 08:44:40;;;;;;;4.75;3.20;;;30.50;44.80;;;;;;5072691;28;20131;-66
2023/06/21 08:47:07;;;;;;;4.45;3.05;;;30.60;45.30;;;;;;5073023;28;20037;-67
2023/06/21 08:49:39;;;;;;;4.72;3.90;;;30.70;45.50;;;;;;5072698;28;20045;-67
2023/06/21 08:52:10;;;;;;;3.45;3.10;;;30.70;44.30;;;;;;5073220;28;20074;-66
2023/06/21 08:54:39;;;;;;;4.10;3.30;;;30.70;44.60;;;;;;5072736;28;20040;-67
2023/06/21 08:57:20;;;;;;;3.83;2.78;;;30.70;44.90;;;;;;5073053;28;20137;-67
2023/06/21 09:00:03;;;;;;;5.50;3.42;;;30.70;44.60;;;;;;5072866;28;20419;-66
2023/06/21 09:02:55;;;;;;;;;;;30.70;45.20;;;;;;5073242;28;20041;-66
2023/06/21 09:05:59;;;;;;;4.55;3.38;;;30.70;45.70;;;;;;5070067;28;20275;-67
2023/06/21 09:08:25;;;;;;;6.33;3.40;;;30.60;45.30;;;;;;5072705;28;20459;-66
2023/06/21 09:10:52;;;;;;;4.90;4.00;;;30.60;45.20;;;;;;5055716;28;20283;-67
2023/06/21 09:13:22;;;;;;;4.70;3.45;;;30.70;44.90;;;;;;5072712;28;20102;-66
2023/06/21 09:15:50;;;;;;;5.78;3.10;;;30.80;45.10;;;;;;5072627;28;20510;-66
2023/06/21 09:18:16;;;;;;;3.88;3.08;;;30.80;45.30;;;;;;5072509;28;20079;-67
2023/06/21 09:20:47;;;;;;;4.55;2.88;;;30.80;45.10;;;;;;5056122;28;20538;-69
2023/06/21 09:23:12;;;;;;;4.63;3.00;;;30.90;44.70;;;;;;5072693;28;20379;-69
2023/06/21 09:25:38;;;;;;;4.45;2.90;;;31.00;44.80;;;;;;5072370;28;20040;-69
2023/06/21 09:28:04;;;;;;;4.15;3.30;;;31.00;44.80;;;;;;5072195;28;20047;-69
2023/06/21 09:30:30;;;;;;;4.75;3.03;;;31.00;44.50;;;;;;5072165;28;20036;-69
2023/06/21 09:32:57;;;;;;;4.53;3.10;;;31.10;44.40;;;;;;5071885;28;20047;-69
2023/06/21 09:35:24;;;;;;;3.75;2.83;;;31.10;44.20;;;;;;5055903;28;20040;-69
2023/06/21 09:37:50;;;;;;;5.95;4.32;;;31.20;44.20;;;;;;5072174;28;20157;-69
2023/06/21 09:40:15;;;;;;;5.78;3.67;;;31.10;43.70;;;;;;5071846;28;20189;-69
2023/06/21 09:42:43;;;;;;;4.40;3.50;;;31.10;44.10;;;;;;5071533;28;20037;-69
2023/06/21 09:45:10;;;;;;;3.88;3.47;;;31.00;44.10;;;;;;5071918;28;20377;-69
2023/06/21 09:47:36;;;;;;;5.95;3.88;;;31.00;44.00;;;;;;5071982;28;20120;-69
2023/06/21 09:50:06;;;;;;;5.15;3.97;;;31.00;44.10;;;;;;5071905;28;20119;-69
2023/06/21 09:52:31;;;;;;;4.68;4.00;;;31.00;44.10;;;;;;5055057;28;20123;-69
2023/06/21 09:54:57;;;;;;;6.10;4.18;;;31.00;43.90;;;;;;5071784;28;20123;-69
2023/06/21 09:57:30;;;;;;;3.70;3.10;;;31.00;43.90;;;;;;5071323;28;20056;-69
2023/06/21 09:59:59;;;;;;;5.15;4.18;;;31.00;44.00;;;;;;5071614;28;20510;-69
2023/06/21 10:02:25;;;;;;;4.25;3.55;;;31.10;44.00;;;;;;5071646;28;20404;-69
2023/06/21 10:04:54;;;;;;;5.28;2.70;;;31.10;43.50;;;;;;5054757;28;20028;-69
2023/06/21 10:07:21;;;;;;;5.03;3.22;;;31.10;43.60;;;;;;5055213;28;20040;-69
2023/06/21 10:09:47;;;;;;;3.97;2.55;;;31.10;42.90;;;;;;5071436;28;20119;-69
2023/06/21 10:12:14;;;;;;;4.03;2.53;;;31.20;43.20;;;;;;5071434;28;20040;-69
2023/06/21 10:14:41;;;;;;;4.80;2.90;;;31.10;42.90;;;;;;5069429;28;20044;-69
2023/06/21 10:17:07;;;;;;;3.42;2.72;;;31.10;43.00;;;;;;5072128;28;20065;-69
2023/06/21 10:19:34;;;;;;;4.13;2.72;;;31.10;43.40;;;;;;5071475;28;20088;-69
2023/06/21 10:22:07;;;;;;;3.47;2.95;;;31.00;43.20;;;;;;5071357;28;20075;-69
2023/06/21 10:24:47;;;;;;;4.35;3.95;;;31.00;42.90;;;;;;5071225;28;20515;-69
2023/06/21 10:27:14;;;;;;;4.45;2.95;;;31.00;42.90;;;;;;5072485;28;20530;-69
2023/06/21 10:29:43;;;;;;;3.60;2.63;;;31.00;42.50;;;;;;5071176;28;20040;-69
2023/06/21 10:32:10;;;;;;;3.70;2.75;;;31.00;42.80;;;;;;5071165;28;20111;-69
2023/06/21 10:34:58;;;;;;;4.47;3.50;;;31.00;42.70;;;;;;5072582;28;20040;-69
2023/06/21 10:37:52;;;;;;;2.95;2.28;;;31.10;42.30;;;;;;5071045;28;20051;-69
2023/06/21 10:40:19;;;;;;;4.32;3.58;;;31.10;43.10;;;;;;5068370;28;20068;-69
2023/06/21 10:42:45;;;;;;;3.83;3.00;;;31.10;42.10;;;;;;5071190;28;20043;-69
2023/06/21 10:45:13;;;;;;;5.05;3.13;;;31.10;42.20;;;;;;5087969;28;20040;-69
2023/06/21 10:47:39;;;;;;;3.10;2.08;;;31.10;41.80;;;;;;5071290;28;20048;-69
2023/06/21 10:50:07;;;;;;;3.15;2.20;;;31.10;42.60;;;;;;5071156;28;20131;-70
2023/06/21 10:52:34;;;;;;;3.50;2.90;;;31.10;43.00;;;;;;5054519;28;20040;-69
2023/06/21 10:55:02;;;;;;;4.32;3.05;;;31.20;42.80;;;;;;5071092;28;20079;-69
2023/06/21 10:57:30;;;;;;;3.50;2.60;;;31.30;42.60;;;;;;5070705;28;20040;-69
2023/06/21 11:00:05;;;;;;;5.05;3.67;;;31.30;42.90;;;;;;5071053;28;20044;-69
2023/06/21 11:02:32;;;;;;;3.90;3.47;;;31.40;41.50;;;;;;5070977;28;20050;-69
2023/06/21 11:05:19;;;;;;;5.00;2.88;;;31.40;42.00;;;;;;5070914;28;20044;-69
2023/06/21 11:07:57;;;;;;;4.40;3.25;;;31.40;42.80;;;;;;5071084;28;20079;-69
2023/06/21 11:10:29;;;;;;;4.28;3.72;;;31.40;42.40;;;;;;5067630;28;20044;-69
2023/06/21 11:12:58;;;;;;;3.72;3.25;;;31.40;42.10;;;;;;5063636;28;20475;-69
2023/06/21 11:15:27;;;;;;;4.43;3.72;;;31.40;42.10;;;;;;5070969;28;20104;-69
2023/06/21 11:18:01;;;;;;;4.18;3.28;;;31.40;42.40;;;;;;5070825;28;20131;-69
2023/06/21 11:20:27;;;;;;;4.93;3.83;;;31.40;42.80;;;;;;5070863;28;20393;-69
2023/06/21 11:23:01;;;;;;;5.05;4.45;;;31.40;42.70;;;;;;5070946;28;20047;-69
2023/06/21 11:25:27;;;;;;;4.05;3.03;;;31.30;42.00;;;;;;5070615;28;20491;-69
2023/06/21 11:28:37;;;;;;;4.82;3.47;;;31.30;42.60;;;;;;5073738;28;20038;-69
2023/06/21 11:31:07;;;;;;;5.40;3.90;;;31.20;43.10;;;;;;5083857;28;20363;-69
2023/06/21 11:33:51;;;;;;;4.45;3.45;;;31.20;43.00;;;;;;5085079;28;20040;-69
2023/06/21 11:36:21;;;;;;;4.47;3.90;;;31.20;43.00;;;;;;5066085;28;20056;-69
2023/06/21 11:38:59;;;;;;;5.15;4.30;;;31.10;42.80;;;;;;5084204;28;20048;-69
2023/06/21 11:41:40;;;;;;;5.60;4.65;;;31.10;43.20;;;;;;5087194;28;20475;-69
2023/06/21 11:44:07;;;;;;;4.13;3.08;;;31.10;42.90;;;;;;5085358;28;20040;-69
2023/06/21 11:46:33;;;;;;;4.97;3.30;;;31.00;43.00;;;;;;5068207;28;20119;-69
2023/06/21 11:49:00;;;;;;;4.70;3.42;;;31.00;42.50;;;;;;5085185;28;20174;-69
2023/06/21 11:51:28;;;;;;;4.55;2.95;;;30.90;41.90;;;;;;5087754;28;20410;-69
2023/06/21 11:53:55;;;;;;;4.57;2.60;;;30.80;42.00;;;;;;5085880;28;21249;-69
2023/06/21 11:56:21;;;;;;;7.53;3.80;;;30.70;42.50;;;;;;5084734;28;20028;-69
2023/06/21 11:58:50;;;;;;;5.22;3.47;;;30.70;42.70;;;;;;5082665;28;20092;-69
2023/06/21 12:01:15;;;;;;;4.25;2.45;;;30.70;42.90;;;;;;5085447;28;20036;-69
2023/06/21 12:03:41;;;;;;;6.10;3.20;;;30.70;43.00;;;;;;5084775;28;20485;-69
2023/06/21 12:06:07;;;;;;;6.68;4.28;;;30.70;42.60;;;;;;5085061;28;20036;-69
2023/06/21 12:08:35;;;;;;;3.15;2.30;;;30.80;42.10;;;;;;5087419;28;20055;-69
2023/06/21 12:11:05;;;;;;;4.13;3.10;;;30.80;41.80;;;;;;5085517;28;20505;-69
2023/06/21 12:13:32;;;;;;;4.20;2.88;;;30.80;41.30;;;;;;5085567;28;20051;-69
2023/06/21 12:16:00;;;;;;;5.28;2.72;;;30.80;40.60;;;;;;5084111;28;20047;-69
2023/06/21 12:18:28;;;;;;;3.08;2.30;;;30.80;40.60;;;;;;5084674;28;20062;-69
2023/06/21 12:20:54;;;;;;;4.93;2.33;;;30.80;40.40;;;;;;5085010;28;20470;-69
2023/06/21 12:23:21;;;;;;;3.33;1.65;;;30.90;40.60;;;;;;5085103;28;20044;-69
2023/06/21 12:25:56;;;;;;;3.55;2.03;;;30.90;40.20;;;;;;5069073;28;20082;-69
2023/06/21 12:28:23;;;;;;;2.30;1.45;;;30.90;39.70;;;;;;5085022;28;20059;-69
2023/06/21 12:31:12;;;;;;;2.47;1.80;;;31.00;39.80;;;;;;5082575;28;20225;-69
2023/06/21 12:33:39;;;;;;;2.88;1.77;;;31.00;40.10;;;;;;5085642;28;20044;-69
2023/06/21 12:36:23;;;;;;;4.15;1.73;;;31.00;40.20;;;;;;5084677;28;20158;-69
2023/06/21 12:38:51;;;;;;;3.70;2.30;;;31.10;40.40;;;;;;5085657;28;20055;-69
2023/06/21 12:41:22;;;;;;;4.30;1.58;;;31.10;39.70;;;;;;5067202;28;20039;-69
2023/06/21 12:43:57;;;;;;;2.47;1.58;;;31.10;39.30;;;;;;5084881;28;20475;-69